Time;durP1;ratioP1;P1;durP2;ratioP2;P2;SDS_P1;SDS_P2;PMS_P1;PMS_P2;Temp;Humidity;BMP_temperature;BMP_pressure;BME280_temperature;BME280_humidity;BME280_pressure;Samples;Min_cycle;Max_cycle;Signal;HPM_P1;HPM_P2
2023/07/04 00:00:48;;;;;;;89.60;81.65;;;;;;;20.52;100.00;100861.72;5060492;28;20048;-80
2023/07/04 00:03:16;;;;;;;80.05;72.22;;;;;;;20.68;100.00;100853.63;5058807;28;20078;-81
2023/07/04 00:05:48;;;;;;;77.68;70.22;;;;;;;20.75;100.00;100856.88;5055710;28;20060;-81
2023/07/04 00:08:15;;;;;;;78.80;71.18;;;;;;;21.02;100.00;100857.38;5060499;28;20059;-81
2023/07/04 00:10:43;;;;;;;73.05;66.25;;;;;;;21.00;100.00;100859.56;5058620;28;20540;-81
2023/07/04 00:13:10;;;;;;;84.60;76.95;;;;;;;20.86;100.00;100853.09;5056680;28;20063;-81
2023/07/04 00:15:37;;;;;;;72.32;65.18;;;;;;;20.82;100.00;100860.13;5059257;28;20063;-80
2023/07/04 00:18:04;;;;;;;70.72;63.97;;;;;;;20.84;100.00;100857.13;5061041;28;20052;-81
2023/07/04 00:20:33;;;;;;;75.97;68.60;;;;;;;20.73;100.00;100856.34;5058597;28;20037;-81
2023/07/04 00:23:00;;;;;;;75.82;68.43;;;;;;;20.77;100.00;100849.31;5058146;28;20064;-81
2023/07/04 00:25:27;;;;;;;77.38;69.97;;;;;;;20.21;100.00;100857.31;5060668;28;20061;-81
2023/07/04 00:27:54;;;;;;;93.20;83.68;;;;;;;19.92;100.00;100857.00;5063748;28;20221;-81
2023/07/04 00:30:21;;;;;;;82.72;74.45;;;;;;;20.41;100.00;100853.84;5053427;28;20049;-81
2023/07/04 00:32:50;;;;;;;92.90;84.50;;;;;;;20.21;100.00;100851.94;5061698;28;20135;-81
2023/07/04 00:35:17;;;;;;;81.80;74.03;;;;;;;20.06;100.00;100860.78;5065784;28;20056;-79
2023/07/04 00:37:45;;;;;;;92.88;84.38;;;;;;;19.91;100.00;100858.88;5057135;28;20481;-81
2023/07/04 00:40:13;;;;;;;94.82;85.85;;;;;;;19.89;100.00;100866.41;5061926;28;20433;-82
2023/07/04 00:42:41;;;;;;;81.85;74.10;;;;;;;20.15;100.00;100867.28;5063337;28;20442;-81
2023/07/04 00:45:19;;;;;;;82.35;74.55;;;;;;;20.08;100.00;100854.06;5060935;28;20056;-82
2023/07/04 00:47:53;;;;;;;78.25;70.95;;;;;;;20.00;100.00;100859.16;5061604;28;20112;-82
2023/07/04 00:50:23;;;;;;;81.30;73.32;;;;;;;19.87;100.00;100863.97;5063062;28;20087;-81
2023/07/04 00:52:54;;;;;;;83.53;75.63;;;;;;;19.49;100.00;100867.81;5065433;28;20430;-81
2023/07/04 00:55:21;;;;;;;92.82;84.22;;;;;;;19.75;100.00;100868.78;5060636;28;20051;-81
2023/07/04 00:57:49;;;;;;;86.07;78.07;;;;;;;20.08;100.00;100872.13;5071559;28;20078;-80
2023/07/04 01:00:19;;;;;;;91.53;83.43;;;;;;;19.71;100.00;100864.19;5062103;28;20111;-80
2023/07/04 01:02:49;;;;;;;86.15;78.07;;;;;;;19.36;100.00;100861.00;5057195;28;20056;-80
2023/07/04 01:05:20;;;;;;;87.18;79.07;;;;;;;19.26;100.00;100870.91;5060951;28;20049;-80
2023/07/04 01:07:58;;;;;;;95.00;86.25;;;;;;;19.06;100.00;100877.78;5063556;28;20119;-81
2023/07/04 01:10:33;;;;;;;89.78;80.95;;;;;;;19.02;100.00;100886.63;5058866;28;20045;-81
2023/07/04 01:13:01;;;;;;;100.07;91.18;;;;;;;19.13;100.00;100888.34;5061884;28;20489;-82
2023/07/04 01:15:29;;;;;;;99.43;90.45;;;;;;;19.12;100.00;100887.53;5059219;28;20045;-80
2023/07/04 01:17:58;;;;;;;98.20;88.32;;;;;;;19.41;100.00;100893.34;5060690;28;20053;-81
2023/07/04 01:20:25;;;;;;;87.60;79.32;;;;;;;19.75;100.00;100886.81;5061718;28;20049;-81
2023/07/04 01:23:11;;;;;;;82.78;75.03;;;;;;;19.37;100.00;100880.69;5061373;28;20114;-80
2023/07/04 01:25:46;;;;;;;86.32;78.32;;;;;;;19.26;100.00;100892.47;5060152;28;20075;-79
2023/07/04 01:28:17;;;;;;;81.85;73.95;;;;;;;19.64;100.00;100888.66;5060834;28;20055;-80
2023/07/04 01:30:50;;;;;;;84.40;76.78;;;;;;;19.84;100.00;100879.84;5067576;28;20496;-82
2023/07/04 01:33:20;;;;;;;90.97;82.95;;;;;;;19.97;100.00;100886.63;5061647;28;20502;-80
2023/07/04 01:35:47;;;;;;;95.68;86.70;;;;;;;19.96;100.00;100885.03;5061988;28;20049;-80
2023/07/04 01:38:14;;;;;;;84.47;76.68;;;;;;;19.64;100.00;100891.34;5062520;28;20048;-80
2023/07/04 01:40:42;;;;;;;90.97;82.75;;;;;;;19.12;100.00;100892.91;5059134;28;20053;-82
2023/07/04 01:43:09;;;;;;;107.53;97.88;;;;;;;18.99;100.00;100899.53;5065510;28;20149;-82
2023/07/04 01:45:37;;;;;;;106.13;96.55;;;;;;;19.37;100.00;100899.53;5060251;28;20434;-81
2023/07/04 01:48:04;;;;;;;92.25;83.47;;;;;;;19.37;100.00;100902.22;5058797;28;20041;-81
2023/07/04 01:50:31;;;;;;;93.60;85.00;;;;;;;19.47;100.00;100898.78;5060794;28;20056;-82
2023/07/04 01:52:59;;;;;;;97.93;89.05;;;;;;;19.36;100.00;100904.09;5057079;28;20048;-82
2023/07/04 01:55:26;;;;;;;100.55;91.35;;;;;;;19.06;100.00;100907.38;5051284;28;20451;-81
2023/07/04 01:57:53;;;;;;;110.53;100.95;;;;;;;19.08;100.00;100905.25;5060938;28;20576;-82
2023/07/04 02:00:22;;;;;;;123.65;112.25;;;;;;;19.24;100.00;100916.94;5062184;28;20127;-81
2023/07/04 02:02:50;;;;;;;107.00;97.65;;;;;;;19.56;100.00;100914.19;5059794;28;20426;-82
2023/07/04 02:05:19;;;;;;;111.70;101.63;;;;;;;19.33;100.00;100909.19;5059825;28;20061;-81
2023/07/04 02:07:46;;;;;;;109.50;99.80;;;;;;;19.37;100.00;100899.53;5062392;28;20432;-82
2023/07/04 02:10:13;;;;;;;112.28;102.45;;;;;;;19.36;100.00;100897.91;5058618;28;20056;-82
2023/07/04 02:12:40;;;;;;;106.15;96.97;;;;;;;19.45;100.00;100907.94;5058869;28;20087;-82
2023/07/04 02:15:08;;;;;;;100.45;91.82;;;;;;;19.38;100.00;100911.94;5060926;28;20418;-81
2023/07/04 02:17:35;;;;;;;84.20;76.20;;;;;;;19.26;100.00;100911.31;5060218;28;20052;-82
2023/07/04 02:20:05;;;;;;;115.00;105.38;;;;;;;18.65;100.00;100915.09;5061610;28;20052;-82
2023/07/04 02:22:32;;;;;;;118.43;108.03;;;;;;;18.81;100.00;100908.00;5058921;28;20048;-81
2023/07/04 02:24:59;;;;;;;101.15;92.05;;;;;;;19.16;100.00;100920.94;5064170;28;20052;-80
2023/07/04 02:27:26;;;;;;;101.45;92.45;;;;;;;18.83;100.00;100908.56;5050327;28;20059;-80
2023/07/04 02:29:53;;;;;;;108.32;98.72;;;;;;;18.91;100.00;100913.47;5050480;28;20423;-80
2023/07/04 02:32:20;;;;;;;96.68;88.25;;;;;;;18.89;100.00;100918.28;5060954;28;20051;-80
2023/07/04 02:34:47;;;;;;;77.95;70.03;;;;;;;19.00;100.00;100911.09;5055294;28;20049;-80
2023/07/04 02:37:15;;;;;;;80.43;72.88;;;;;;;19.09;100.00;100917.66;5060518;28;20044;-82
2023/07/04 02:39:43;;;;;;;74.88;67.95;;;;;;;19.11;100.00;100922.78;5059293;28;20057;-80
2023/07/04 02:42:09;;;;;;;70.57;63.58;;;;;;;18.61;100.00;100913.16;5059792;28;20102;-80
2023/07/04 02:44:36;;;;;;;73.28;65.85;;;;;;;18.90;100.00;100922.59;5051914;28;20056;-80
2023/07/04 02:47:04;;;;;;;69.45;62.65;;;;;;;18.99;100.00;100918.38;5061354;28;20052;-80
2023/07/04 02:49:30;;;;;;;78.25;70.80;;;;;;;18.72;100.00;100918.38;5059338;28;20530;-80
2023/07/04 02:51:57;;;;;;;76.63;69.43;;;;;;;18.84;100.00;100928.19;5059700;28;20431;-80
2023/07/04 02:54:26;;;;;;;76.40;69.50;;;;;;;18.76;100.00;100916.03;5052468;28;20059;-80
2023/07/04 02:56:53;;;;;;;69.75;63.13;;;;;;;18.52;100.00;100924.38;5064539;28;20051;-80
2023/07/04 02:59:20;;;;;;;71.22;64.45;;;;;;;18.76;100.00;100924.13;5058715;28;20446;-82
2023/07/04 03:01:47;;;;;;;69.78;63.47;;;;;;;18.98;100.00;100916.75;5060821;28;20454;-82
2023/07/04 03:04:14;;;;;;;68.47;62.10;;;;;;;19.01;100.00;100928.91;5060343;28;20110;-82
2023/07/04 03:06:41;;;;;;;69.43;62.78;;;;;;;18.94;100.00;100931.81;5058784;28;20059;-82
2023/07/04 03:09:08;;;;;;;70.72;64.38;;;;;;;18.79;100.00;100928.97;5056924;28;20041;-82
2023/07/04 03:11:37;;;;;;;70.78;63.78;;;;;;;18.58;100.00;100929.78;5049392;28;20422;-81
2023/07/04 03:14:04;;;;;;;74.90;68.00;;;;;;;18.60;100.00;100935.75;5051585;28;20052;-82
2023/07/04 03:16:31;;;;;;;70.85;64.05;;;;;;;19.08;100.00;100924.09;5058473;28;20041;-82
2023/07/04 03:18:58;;;;;;;70.00;63.22;;;;;;;19.28;100.00;100930.72;5058448;28;20053;-82
2023/07/04 03:21:25;;;;;;;70.00;63.40;;;;;;;19.26;100.00;100933.66;5061160;28;20415;-82
2023/07/04 03:23:51;;;;;;;80.00;72.88;;;;;;;18.70;100.00;100933.97;5054361;28;20082;-82
2023/07/04 03:26:19;;;;;;;82.03;74.25;;;;;;;19.05;100.00;100938.06;5057162;28;20051;-82
2023/07/04 03:28:48;;;;;;;72.75;66.10;;;;;;;19.39;100.00;100932.38;5058950;28;20049;-81
2023/07/04 03:31:15;;;;;;;72.47;65.75;;;;;;;19.50;100.00;100944.84;5051652;28;20052;-82
2023/07/04 03:33:42;;;;;;;67.80;61.38;;;;;;;19.47;100.00;100942.69;5060573;28;20060;-80
2023/07/04 03:36:08;;;;;;;68.30;61.97;;;;;;;19.55;100.00;100946.78;5059510;28;20499;-80
2023/07/04 03:38:35;;;;;;;70.30;63.72;;;;;;;19.78;100.00;100951.78;5059785;28;20041;-80
2023/07/04 03:41:02;;;;;;;72.75;66.15;;;;;;;20.01;100.00;100947.88;5054501;28;20072;-80
2023/07/04 03:43:30;;;;;;;69.97;63.50;;;;;;;19.99;100.00;100944.59;5061486;28;20761;-80
2023/07/04 03:45:58;;;;;;;77.47;69.68;;;;;;;19.99;100.00;100943.81;5060241;28;20052;-81
2023/07/04 03:48:25;;;;;;;73.75;66.32;;;;;;;19.73;100.00;100942.84;5059354;28;20044;-82
2023/07/04 03:50:52;;;;;;;75.75;68.25;;;;;;;20.06;100.00;100949.75;5053342;28;20045;-81
2023/07/04 03:53:19;;;;;;;75.55;68.05;;;;;;;20.12;100.00;100949.53;5063767;28;20499;-82
2023/07/04 03:55:46;;;;;;;74.85;66.93;;;;;;;20.32;100.00;100943.38;5059710;28;20052;-82
2023/07/04 03:58:13;;;;;;;70.28;63.42;;;;;;;20.35;100.00;100947.44;5061887;28;20045;-82
2023/07/04 04:00:40;;;;;;;67.65;61.45;;;;;;;20.34;100.00;100943.94;5060805;28;20426;-82
2023/07/04 04:03:08;;;;;;;65.13;59.38;;;;;;;20.34;100.00;100946.63;5061161;28;20123;-82
2023/07/04 04:05:35;;;;;;;70.05;63.47;;;;;;;20.48;100.00;100957.72;5061954;28;20140;-82
2023/07/04 04:08:02;;;;;;;66.30;60.25;;;;;;;20.62;100.00;100960.75;5063138;28;20132;-82
2023/07/04 04:10:29;;;;;;;65.68;59.53;;;;;;;20.65;100.00;100956.72;5060295;28;20056;-82
2023/07/04 04:12:56;;;;;;;61.30;55.60;;;;;;;20.67;100.00;100959.97;5064656;28;20060;-82
2023/07/04 04:15:23;;;;;;;63.78;57.83;;;;;;;20.89;100.00;100968.63;5061004;28;20044;-81
2023/07/04 04:17:50;;;;;;;66.53;60.35;;;;;;;20.97;100.00;100960.00;5063376;28;20052;-82
2023/07/04 04:20:18;;;;;;;63.10;57.10;;;;;;;20.97;100.00;100968.09;5062410;28;20053;-82
2023/07/04 04:22:46;;;;;;;68.32;61.72;;;;;;;21.05;100.00;100966.75;5052642;28;20477;-81
2023/07/04 04:25:14;;;;;;;66.75;60.55;;;;;;;21.16;100.00;100972.97;5059657;28;20132;-83
2023/07/04 04:27:41;;;;;;;62.22;56.67;;;;;;;21.18;100.00;100978.88;5066127;28;20041;-82
2023/07/04 04:30:10;;;;;;;63.17;57.67;;;;;;;21.30;100.00;100975.91;5052959;28;20079;-82
2023/07/04 04:32:37;;;;;;;63.03;57.60;;;;;;;21.28;100.00;100966.19;5060826;28;20052;-82
2023/07/04 04:35:06;;;;;;;60.10;54.88;;;;;;;21.50;100.00;100962.41;5065912;28;20050;-81
2023/07/04 04:37:35;;;;;;;58.80;53.67;;;;;;;21.48;100.00;100964.56;5061839;28;20074;-82
2023/07/04 04:40:02;;;;;;;55.30;50.20;;;;;;;21.70;100.00;100969.69;5060228;28;20049;-82
2023/07/04 04:42:32;;;;;;;55.13;50.25;;;;;;;21.69;100.00;100973.44;5063945;28;20044;-82
2023/07/04 04:44:58;;;;;;;54.25;49.38;;;;;;;21.65;100.00;100969.69;5060495;28;20122;-82
2023/07/04 04:47:26;;;;;;;51.30;46.67;;;;;;;21.79;100.00;100975.34;5062523;28;20041;-82
2023/07/04 04:49:56;;;;;;;54.88;50.15;;;;;;;21.86;100.00;100967.75;5063694;28;20434;-82
2023/07/04 04:52:24;;;;;;;55.65;51.00;;;;;;;22.08;100.00;100972.81;5063134;28;20051;-82
2023/07/04 04:54:52;;;;;;;50.20;45.80;;;;;;;22.00;100.00;100979.59;5057286;28;20053;-80
2023/07/04 04:57:19;;;;;;;51.00;46.47;;;;;;;22.05;100.00;100976.06;5071370;28;20051;-80
2023/07/04 04:59:47;;;;;;;49.90;45.80;;;;;;;22.36;100.00;100972.19;5059879;28;20049;-82
2023/07/04 05:02:15;;;;;;;47.20;43.22;;;;;;;22.47;100.00;100969.41;5065365;28;20502;-82
2023/07/04 05:04:42;;;;;;;44.70;41.00;;;;;;;22.51;100.00;100968.59;5061440;28;20048;-80
2023/07/04 05:07:09;;;;;;;45.05;41.20;;;;;;;22.54;100.00;100965.31;5061175;28;20060;-80
2023/07/04 05:09:36;;;;;;;43.22;39.40;;;;;;;22.75;100.00;100962.47;5060965;28;20051;-80
2023/07/04 05:12:05;;;;;;;41.90;38.10;;;;;;;22.93;100.00;100961.78;5060378;28;20416;-82
2023/07/04 05:14:32;;;;;;;38.65;35.30;;;;;;;22.79;100.00;100960.81;5061163;28;20044;-80
2023/07/04 05:16:58;;;;;;;35.50;32.40;;;;;;;23.11;100.00;100975.75;5061853;28;20049;-80
2023/07/04 05:19:25;;;;;;;34.95;31.90;;;;;;;23.19;100.00;100967.03;5063880;28;20044;-80
2023/07/04 05:21:52;;;;;;;33.80;30.70;;;;;;;23.21;100.00;100959.44;5060333;28;20045;-80
2023/07/04 05:24:19;;;;;;;31.15;28.42;;;;;;;23.30;100.00;100966.66;5057502;28;20048;-82
2023/07/04 05:26:46;;;;;;;31.33;28.73;;;;;;;23.28;100.00;100970.75;5063692;28;20045;-81
2023/07/04 05:29:14;;;;;;;35.60;32.13;;;;;;;23.19;100.00;100965.13;5064611;28;20045;-82
2023/07/04 05:31:41;;;;;;;32.83;30.02;;;;;;;23.41;100.00;100975.50;5064836;28;20566;-80
2023/07/04 05:34:08;;;;;;;32.10;29.35;;;;;;;23.59;100.00;100982.09;5058771;28;20438;-82
2023/07/04 05:36:37;;;;;;;33.25;30.58;;;;;;;23.82;100.00;100968.88;5066635;28;20429;-82
2023/07/04 05:39:06;;;;;;;32.28;29.48;;;;;;;23.78;100.00;100979.47;5061703;28;20057;-81
2023/07/04 05:41:35;;;;;;;34.90;31.95;;;;;;;23.90;100.00;100985.31;5059598;28;20040;-81
2023/07/04 05:44:04;;;;;;;32.45;29.23;;;;;;;23.94;100.00;100974.72;5060144;28;20048;-81
2023/07/04 05:46:33;;;;;;;32.22;29.27;;;;;;;23.97;100.00;100976.84;5059928;28;20086;-81
2023/07/04 05:49:00;;;;;;;32.30;28.08;;;;;;;24.10;100.00;100975.34;5062280;28;20045;-81
2023/07/04 05:51:27;;;;;;;33.60;28.65;;;;;;;24.48;100.00;100975.41;5058659;28;20059;-81
2023/07/04 05:53:54;;;;;;;31.42;28.05;;;;;;;24.60;100.00;100970.34;5064944;28;20438;-81
2023/07/04 05:56:24;;;;;;;31.48;27.95;;;;;;;24.51;100.00;100977.53;5058469;28;20446;-81
2023/07/04 05:58:54;;;;;;;32.42;26.73;;;;;;;24.85;100.00;100978.13;5059243;28;20052;-82
2023/07/04 06:01:24;;;;;;;32.08;26.80;;;;;;;24.73;100.00;100985.09;5060073;28;20048;-82
2023/07/04 06:03:54;;;;;;;32.83;29.02;;;;;;;24.89;100.00;100972.88;5058784;28;20056;-81
2023/07/04 06:06:24;;;;;;;32.72;28.63;;;;;;;24.95;100.00;100979.06;5063080;28;20055;-81
2023/07/04 06:08:52;;;;;;;35.38;32.13;;;;;;;24.98;100.00;100979.25;5061866;28;20521;-81
2023/07/04 06:11:20;;;;;;;37.30;33.75;;;;;;;25.31;100.00;100977.38;5055484;28;20055;-81
2023/07/04 06:13:48;;;;;;;36.45;32.85;;;;;;;25.44;100.00;100975.78;5065976;28;20052;-81
2023/07/04 06:16:15;;;;;;;36.22;33.00;;;;;;;25.41;100.00;100973.66;5059810;28;20044;-82
2023/07/04 06:18:43;;;;;;;38.50;35.05;;;;;;;25.70;100.00;100978.06;5061745;28;20052;-82
2023/07/04 06:21:13;;;;;;;37.47;34.00;;;;;;;25.72;100.00;100970.38;5057482;28;20060;-82
2023/07/04 06:23:41;;;;;;;34.75;31.23;;;;;;;25.97;100.00;100964.47;5060124;28;20059;-82
2023/07/04 06:26:08;;;;;;;37.78;34.60;;;;;;;25.79;100.00;100971.59;5062128;28;20045;-82
2023/07/04 06:28:37;;;;;;;37.60;34.40;;;;;;;25.97;100.00;100977.28;5061705;28;20052;-81
2023/07/04 06:31:04;;;;;;;37.15;33.42;;;;;;;26.38;100.00;100976.41;5068767;28;20056;-81
2023/07/04 06:33:31;;;;;;;38.70;35.35;;;;;;;26.38;100.00;100979.94;5061735;28;20044;-81
2023/07/04 06:35:58;;;;;;;36.15;33.00;;;;;;;26.49;100.00;100975.13;5059827;28;20471;-82
2023/07/04 06:38:27;;;;;;;34.38;31.17;;;;;;;26.42;100.00;100969.25;5059350;28;20071;-82
2023/07/04 06:40:58;;;;;;;34.72;31.88;;;;;;;26.34;100.00;100970.78;5058660;28;20522;-81
2023/07/04 06:43:25;;;;;;;34.80;31.65;;;;;;;26.70;100.00;100967.28;5057754;28;20041;-81
2023/07/04 06:45:52;;;;;;;35.78;32.50;;;;;;;26.67;100.00;100976.88;5058269;28;20053;-82
2023/07/04 06:48:21;;;;;;;37.03;33.40;;;;;;;27.13;100.00;100973.03;5063530;28;20048;-82
2023/07/04 06:50:56;;;;;;;40.30;36.08;;;;;;;27.19;100.00;100965.56;5059023;28;20048;-81
2023/07/04 06:53:24;;;;;;;39.05;35.55;;;;;;;27.13;100.00;100966.78;5054873;28;20049;-81
2023/07/04 06:55:52;;;;;;;36.80;33.50;;;;;;;27.38;100.00;100966.16;5058945;28;20068;-82
2023/07/04 06:58:20;;;;;;;39.20;35.90;;;;;;;27.67;100.00;100967.56;5052365;28;20047;-82
2023/07/04 07:00:47;;;;;;;40.38;36.55;;;;;;;27.99;100.00;100963.69;5059827;28;20140;-82
2023/07/04 07:03:14;;;;;;;38.63;35.25;;;;;;;28.21;100.00;100961.97;5059919;28;20067;-82
2023/07/04 07:05:41;;;;;;;41.70;37.47;;;;;;;27.90;100.00;100962.88;5058733;28;20437;-81
2023/07/04 07:08:08;;;;;;;36.35;33.35;;;;;;;27.81;100.00;100954.66;5049759;28;20052;-82
2023/07/04 07:10:36;;;;;;;38.75;35.63;;;;;;;28.13;100.00;100955.34;5049983;28;20124;-82
2023/07/04 07:13:05;;;;;;;46.10;42.05;;;;;;;28.33;100.00;100947.69;5057755;28;20144;-82
2023/07/04 07:15:32;;;;;;;43.35;39.55;;;;;;;28.18;100.00;100952.50;5063665;28;20048;-82
2023/07/04 07:17:59;;;;;;;41.13;37.42;;;;;;;28.08;100.00;100945.41;5049782;28;20119;-81
2023/07/04 07:20:26;;;;;;;44.38;40.45;;;;;;;28.30;100.00;100951.88;5052161;28;20127;-82
2023/07/04 07:22:52;;;;;;;42.60;39.08;;;;;;;28.02;100.00;100941.22;5066300;28;20550;-80
2023/07/04 07:25:19;;;;;;;43.40;39.88;;;;;;;27.95;100.00;100946.31;5049767;28;20045;-81
2023/07/04 07:27:46;;;;;;;43.55;39.75;;;;;;;28.23;100.00;100935.97;5049271;28;20055;-80
2023/07/04 07:30:15;;;;;;;44.42;40.55;;;;;;;28.15;100.00;100944.94;5049778;28;20045;-81
2023/07/04 07:32:42;;;;;;;42.92;38.97;;;;;;;28.44;100.00;100944.34;5049436;28;20045;-81
2023/07/04 07:35:09;;;;;;;42.38;38.42;;;;;;;28.46;100.00;100947.56;5061511;28;20049;-81
2023/07/04 07:37:36;;;;;;;42.42;38.28;;;;;;;28.35;100.00;100943.50;5062403;28;20049;-81
2023/07/04 07:40:04;;;;;;;40.47;36.92;;;;;;;29.38;100.00;100941.81;5060798;28;20434;-81
2023/07/04 07:42:31;;;;;;;30.90;28.38;;;;;;;29.64;100.00;100941.72;5062831;28;20044;-81
2023/07/04 07:44:58;;;;;;;31.10;28.40;;;;;;;29.61;100.00;100936.06;5060746;28;20148;-81
2023/07/04 07:47:26;;;;;;;41.08;37.28;;;;;;;29.05;100.00;100943.50;5065651;28;20044;-81
2023/07/04 07:49:53;;;;;;;40.38;36.92;;;;;;;29.31;100.00;100941.50;5060863;28;20502;-81
2023/07/04 07:52:20;;;;;;;39.45;36.10;;;;;;;29.42;100.00;100947.44;5062420;28;20522;-81
2023/07/04 07:54:47;;;;;;;37.22;33.88;;;;;;;29.09;100.00;100936.28;5063166;28;20048;-81
2023/07/04 07:57:14;;;;;;;35.15;31.63;;;;;;;29.11;100.00;100939.47;5066437;28;20045;-81
2023/07/04 07:59:41;;;;;;;35.38;32.35;;;;;;;28.97;100.00;100942.38;5062201;28;20060;-81
2023/07/04 08:02:13;;;;;;;33.72;30.98;;;;;;;29.69;100.00;100943.47;5059925;28;20438;-81
2023/07/04 08:04:41;;;;;;;31.48;28.17;;;;;;;29.80;100.00;100946.63;5058249;28;20045;-80
2023/07/04 08:07:08;;;;;;;33.03;30.00;;;;;;;30.50;100.00;100941.50;5059954;28;20045;-81
2023/07/04 08:09:35;;;;;;;36.20;33.05;;;;;;;29.51;100.00;100944.66;5063858;28;20076;-81
2023/07/04 08:12:02;;;;;;;33.67;30.98;;;;;;;29.53;100.00;100936.91;5060922;28;20075;-81
2023/07/04 08:14:29;;;;;;;35.10;32.08;;;;;;;29.84;100.00;100944.84;5061944;28;20127;-81
2023/07/04 08:16:56;;;;;;;32.50;29.90;;;;;;;29.31;100.00;100940.69;5063349;28;20052;-81
2023/07/04 08:19:25;;;;;;;31.48;28.98;;;;;;;30.32;100.00;100940.88;5052912;28;20045;-81
2023/07/04 08:21:54;;;;;;;31.77;28.92;;;;;;;30.13;100.00;100942.06;5052544;28;20057;-81
2023/07/04 08:24:21;;;;;;;31.50;29.30;;;;;;;30.37;100.00;100943.38;5052627;28;20049;-82
2023/07/04 08:26:48;;;;;;;35.33;32.72;;;;;;;30.34;100.00;100933.88;5054905;28;20053;-82
2023/07/04 08:29:16;;;;;;;37.10;34.17;;;;;;;30.57;100.00;100941.78;5062076;28;20076;-80
2023/07/04 08:31:43;;;;;;;37.45;34.72;;;;;;;30.83;100.00;100943.50;5058356;28;20049;-81
2023/07/04 08:34:10;;;;;;;37.30;34.72;;;;;;;30.69;100.00;100938.28;5064956;28;20131;-81
2023/07/04 08:36:39;;;;;;;38.28;35.92;;;;;;;30.56;100.00;100943.72;5064013;28;20048;-81
2023/07/04 08:39:09;;;;;;;35.60;33.20;;;;;;;31.25;100.00;100941.44;5057892;28;20056;-82
2023/07/04 08:41:43;;;;;;;37.20;34.70;;;;;;;30.58;100.00;100935.16;5067301;28;20083;-81
2023/07/04 08:44:16;;;;;;;35.65;33.30;;;;;;;31.00;100.00;100935.91;5052334;28;20056;-82
2023/07/04 08:46:46;;;;;;;38.40;35.67;;;;;;;31.10;100.00;100942.09;5051568;28;20049;-82
2023/07/04 08:49:26;;;;;;;36.25;33.70;;;;;;;30.67;100.00;100938.63;5060604;28;20052;-82
2023/07/04 08:51:58;;;;;;;33.85;31.52;;;;;;;30.12;100.00;100934.19;5061755;28;20053;-82
2023/07/04 08:54:27;;;;;;;33.25;30.80;;;;;;;31.61;100.00;100926.16;5065777;28;20056;-83
2023/07/04 08:57:00;;;;;;;37.33;34.67;;;;;;;31.66;100.00;100928.69;5062306;28;20102;-82
2023/07/04 08:59:39;;;;;;;39.95;36.90;;;;;;;31.08;100.00;100927.94;5060554;28;20512;-82
2023/07/04 09:02:43;;;;;;;38.97;35.78;;;;;;;32.17;100.00;100926.38;5060220;28;20079;-82
2023/07/04 09:05:18;;;;;;;34.72;32.45;;;;;;;32.23;100.00;100916.72;5051779;28;20049;-82
2023/07/04 09:07:53;;;;;;;34.80;32.53;;;;;;;31.91;100.00;100921.25;5060648;28;20048;-82
2023/07/04 09:10:30;;;;;;;37.63;35.15;;;;;;;32.40;100.00;100916.41;5060375;28;20062;-82
2023/07/04 09:12:57;;;;;;;38.25;35.65;;;;;;;32.64;100.00;100917.50;5063524;28;20049;-82
2023/07/04 09:15:31;;;;;;;34.30;31.95;;;;;;;32.95;100.00;100921.47;5063161;28;20208;-83
2023/07/04 09:18:06;;;;;;;29.15;26.85;;;;;;;31.85;100.00;100919.84;5056672;28;20075;-82
2023/07/04 09:20:41;;;;;;;27.65;25.23;;;;;;;32.54;100.00;100915.28;5059972;28;20087;-82
2023/07/04 09:23:14;;;;;;;28.55;26.33;;;;;;;32.19;100.00;100912.25;5051545;28;20438;-82
2023/07/04 09:25:43;;;;;;;27.02;24.92;;;;;;;32.05;100.00;100913.44;5060508;28;20055;-82
2023/07/04 09:28:10;;;;;;;27.45;25.17;;;;;;;31.76;100.00;100925.47;5062626;28;20510;-81
2023/07/04 09:30:37;;;;;;;26.92;24.70;;;;;;;32.76;100.00;100925.69;5052542;28;20343;-80
2023/07/04 09:33:05;;;;;;;28.17;25.77;;;;;;;32.89;100.00;100918.16;5060106;28;20055;-82
2023/07/04 09:35:32;;;;;;;29.02;26.58;;;;;;;32.74;100.00;100914.25;5063079;28;20053;-83
2023/07/04 09:38:01;;;;;;;29.52;27.13;;;;;;;31.50;100.00;100914.88;5054230;28;20080;-82
2023/07/04 09:40:43;;;;;;;29.55;27.30;;;;;;;31.16;100.00;100916.84;5062783;28;20517;-81
2023/07/04 09:43:11;;;;;;;28.95;26.45;;;;;;;33.13;100.00;100909.00;5064004;28;20067;-82
2023/07/04 09:45:39;;;;;;;28.80;26.50;;;;;;;33.41;100.00;100908.91;5063677;28;20055;-82
2023/07/04 09:48:08;;;;;;;28.35;26.15;;;;;;;33.48;100.00;100911.84;5060534;28;20493;-82
2023/07/04 09:50:37;;;;;;;27.63;25.48;;;;;;;33.10;100.00;100904.19;5061404;28;20052;-80
2023/07/04 09:53:09;;;;;;;28.85;26.58;;;;;;;33.59;100.00;100912.13;5051510;28;20059;-82
2023/07/04 09:55:37;;;;;;;30.30;27.65;;;;;;;33.37;100.00;100913.53;5051349;28;20059;-82
2023/07/04 09:58:22;;;;;;;29.48;27.27;;;;;;;33.51;100.00;100905.63;5053107;28;20072;-81
2023/07/04 10:01:06;;;;;;;27.88;25.60;;;;;;;33.84;100.00;100904.44;5062054;28;20048;-82
2023/07/04 10:03:33;;;;;;;29.17;26.80;;;;;;;33.11;100.00;100905.81;5058788;28;20701;-82
2023/07/04 10:06:01;;;;;;;27.38;24.77;;;;;;;33.46;100.00;100900.38;5058790;28;20041;-83
2023/07/04 10:08:28;;;;;;;26.30;24.08;;;;;;;33.30;100.00;100896.84;5059869;28;20510;-83
2023/07/04 10:10:57;;;;;;;26.88;24.70;;;;;;;33.05;100.00;100893.47;5060729;28;20045;-81
2023/07/04 10:13:36;;;;;;;28.97;26.63;;;;;;;33.01;100.00;100893.41;5061778;28;20071;-82
2023/07/04 10:16:20;;;;;;;28.30;25.90;;;;;;;32.31;100.00;100882.78;5061910;28;20072;-81
2023/07/04 10:18:47;;;;;;;28.67;26.38;;;;;;;33.00;100.00;100890.97;5058886;28;20497;-82
2023/07/04 10:21:14;;;;;;;32.17;29.88;;;;;;;33.21;100.00;100890.72;5062239;28;20071;-82
2023/07/04 10:23:41;;;;;;;27.70;25.50;;;;;;;32.98;100.00;100885.84;5052975;28;20150;-82
2023/07/04 10:26:09;;;;;;;27.73;25.42;;;;;;;32.88;100.00;100893.78;5059591;28;20108;-81
2023/07/04 10:28:38;;;;;;;39.40;36.13;;;;;;;33.02;100.00;100885.94;5061641;28;20053;-81
2023/07/04 10:31:10;;;;;;;38.13;35.63;;;;;;;33.01;97.64;100881.56;5052752;28;20060;-81
2023/07/04 10:33:44;;;;;;;45.05;42.25;;;;;;;31.08;100.00;100884.06;5060869;28;20166;-81
2023/07/04 10:36:16;;;;;;;37.22;35.03;;;;;;;32.17;100.00;100882.41;5059421;28;20102;-81
2023/07/04 10:38:46;;;;;;;35.33;33.17;;;;;;;32.49;100.00;100882.53;5055783;28;20056;-82
2023/07/04 10:41:22;;;;;;;25.02;22.92;;;;;;;32.91;100.00;100873.81;5059961;28;20135;-82
2023/07/04 10:43:57;;;;;;;26.35;24.25;;;;;;;32.36;100.00;100879.81;5057026;28;20053;-81
2023/07/04 10:46:26;;;;;;;25.70;23.70;;;;;;;33.12;100.00;100874.38;5054066;28;20557;-81
2023/07/04 10:49:04;;;;;;;25.83;23.80;;;;;;;33.14;100.00;100883.09;5059526;28;20077;-82
2023/07/04 10:51:34;;;;;;;24.75;22.95;;;;;;;33.57;98.76;100877.84;5052775;28;20047;-82
2023/07/04 10:54:01;;;;;;;24.98;22.88;;;;;;;33.35;100.00;100873.78;5056899;28;20048;-82
2023/07/04 10:56:33;;;;;;;26.85;24.83;;;;;;;32.40;100.00;100877.94;5061240;28;20440;-81
2023/07/04 10:59:08;;;;;;;27.30;25.20;;;;;;;32.08;100.00;100870.75;5061475;28;20055;-81
2023/07/04 11:01:40;;;;;;;26.90;24.88;;;;;;;32.80;100.00;100868.84;5051050;28;20521;-81
2023/07/04 11:04:13;;;;;;;27.63;25.33;;;;;;;31.69;100.00;100871.16;5058649;28;20064;-81
2023/07/04 11:06:45;;;;;;;27.77;25.13;;;;;;;31.86;100.00;100867.34;5060628;28;20135;-82
2023/07/04 11:09:15;;;;;;;27.97;25.93;;;;;;;32.39;100.00;100864.56;5048970;28;20060;-81